createdAt,value
2019-05-21T00:02:34.238Z,13108
2019-05-21T00:07:49.598Z,13180
2019-05-21T00:13:04.507Z,13128
2019-05-21T00:18:22.294Z,13110
2019-05-21T00:23:37.538Z,13096
2019-05-21T00:28:52.095Z,13103
2019-05-21T00:34:07.756Z,13123
2019-05-21T00:39:23.694Z,13132
2019-05-21T00:44:38.132Z,13127
2019-05-21T00:49:55.456Z,13132
2019-05-21T00:55:10.639Z,13125
2019-05-21T01:00:25.554Z,13113
2019-05-21T01:05:40.617Z,13098
2019-05-21T01:10:56.453Z,13101
2019-05-21T01:16:12.587Z,13038
2019-05-21T01:21:29.040Z,13039
2019-05-21T01:26:46.264Z,13089
2019-05-21T01:32:00.856Z,13116
2019-05-21T01:37:15.798Z,13196
2019-05-21T01:42:30.875Z,13162
2019-05-21T01:47:47.446Z,13131
2019-05-21T01:53:02.643Z,13120
2019-05-21T01:58:17.561Z,13119
2019-05-21T02:03:35.465Z,13122
2019-05-21T02:08:51.866Z,13123
2019-05-21T02:14:09.104Z,13122
2019-05-21T02:19:24.146Z,13110
2019-05-21T02:24:38.873Z,13110
2019-05-21T02:29:54.820Z,13105
2019-05-21T02:35:11.137Z,13102
2019-05-21T02:40:26.632Z,13100
2019-05-21T02:45:42.265Z,13098
2019-05-21T02:51:01.172Z,13091
2019-05-21T02:56:15.087Z,13097
2019-05-21T03:01:31.960Z,13094
2019-05-21T03:06:47.609Z,13096
2019-05-21T03:12:05.624Z,13123
2019-05-21T03:17:21.001Z,13172
2019-05-21T03:22:38.253Z,13144
2019-05-21T03:27:51.096Z,13082
2019-05-21T03:33:07.559Z,13058
2019-05-21T03:38:23.023Z,13094
2019-05-21T03:43:38.657Z,13074
2019-05-21T03:48:53.469Z,13102
2019-05-21T03:54:08.679Z,13201
2019-05-21T03:59:24.054Z,13158
2019-05-21T04:04:38.786Z,13140
2019-05-21T04:09:54.882Z,13138
2019-05-21T04:15:11.808Z,13136
2019-05-21T04:20:28.362Z,13059
2019-05-21T04:25:45.607Z,13133
2019-05-21T04:31:00.878Z,13137
2019-05-21T04:36:16.418Z,13141
2019-05-21T04:41:33.220Z,13155
2019-05-21T04:46:48.367Z,13123
2019-05-21T04:52:03.761Z,13236
2019-05-21T04:57:19.756Z,13193
2019-05-21T05:02:35.849Z,13425
2019-05-21T05:07:52.651Z,13860
2019-05-21T05:13:10.328Z,13812
2019-05-21T05:18:28.008Z,13620
2019-05-21T05:23:44.491Z,13423
2019-05-21T05:29:02.126Z,13376
2019-05-21T05:39:31.295Z,13102
2019-05-21T05:44:47.772Z,13068
2019-05-21T06:38:18.254Z,13090
2019-05-21T06:43:32.576Z,13039
2019-05-21T06:59:14.078Z,13048
2019-05-21T06:59:51.201Z,13071
2019-05-21T07:00:20.730Z,13087
2019-05-21T07:05:34.886Z,13057
2019-05-21T07:10:51.969Z,13039
2019-05-21T07:16:08.810Z,13131
2019-05-21T07:21:24.336Z,13132
2019-05-21T07:26:40.374Z,13041
2019-05-21T07:31:56.929Z,13012
2019-05-21T07:37:15.975Z,13141
2019-05-21T07:53:00.058Z,13094
2019-05-21T07:58:18.194Z,13148
2019-05-21T08:03:37.270Z,13068
2019-05-21T08:14:07.096Z,13130
2019-05-21T08:19:22.116Z,13215
2019-05-21T08:24:39.348Z,13135
2019-05-21T08:29:57.626Z,13118
2019-05-21T08:35:13.984Z,13087
2019-05-21T08:40:31.123Z,13075
2019-05-21T08:45:48.774Z,13097
2019-05-21T08:51:07.869Z,13049
2019-05-21T08:56:22.023Z,13126
2019-05-21T09:01:39.911Z,13132
2019-05-21T09:12:12.549Z,13054
2019-05-21T09:17:31.036Z,13104
2019-05-21T09:22:49.909Z,13166
2019-05-21T09:38:35.568Z,13024
2019-05-21T09:43:52.480Z,13129
2019-05-21T09:49:10.304Z,13040
2019-05-21T09:54:28.722Z,13030
2019-05-21T10:05:01.912Z,13028
2019-05-21T10:10:21.201Z,13083
2019-05-21T10:15:37.180Z,13038
2019-05-21T10:26:05.540Z,13031
2019-05-21T10:41:52.153Z,13035
2019-05-21T10:47:08.096Z,13030
2019-05-21T11:02:51.948Z,13166
2019-05-21T11:08:25.452Z,13213
2019-05-21T11:18:51.861Z,13125
2019-05-21T11:24:08.486Z,13071
2019-05-21T11:34:39.090Z,13018
2019-05-21T11:45:08.366Z,13102
2019-05-21T11:51:00.293Z,13142
2019-05-21T11:56:17.605Z,13021
2019-05-21T12:01:34.034Z,13095
2019-05-21T12:06:49.847Z,13193
2019-05-21T12:17:19.692Z,13036
2019-05-21T12:33:06.387Z,13094
2019-05-21T12:38:23.982Z,13124
2019-05-21T12:43:42.461Z,13224
2019-05-21T12:49:00.755Z,13383
2019-05-21T12:54:20.803Z,13281
2019-05-21T12:59:39.636Z,13317
2019-05-21T13:04:55.250Z,13198
2019-05-21T13:10:12.580Z,13082
2019-05-21T13:15:28.750Z,13016
2019-05-21T13:36:28.178Z,13079
2019-05-21T15:36:51.964Z,13032
2019-05-21T15:42:07.861Z,13013
2019-05-21T16:23:57.684Z,13011
2019-05-21T17:52:50.080Z,13063
2019-05-21T18:03:18.611Z,13046
2019-05-21T18:08:34.675Z,13051
2019-05-21T18:13:50.691Z,13045
2019-05-21T18:19:08.701Z,13052
2019-05-21T18:24:24.773Z,13079
2019-05-21T18:29:40.560Z,13089
2019-05-21T18:34:54.918Z,13100
2019-05-21T18:40:13.544Z,13186
2019-05-21T18:50:45.125Z,13038
2019-05-21T18:56:02.418Z,13093
2019-05-21T19:01:18.209Z,13065
2019-05-21T19:06:38.099Z,13084
2019-05-21T19:11:58.370Z,13113
2019-05-21T19:17:15.574Z,13185
2019-05-21T19:22:32.467Z,13159
2019-05-21T19:27:49.304Z,13163
2019-05-21T19:33:09.022Z,13162
2019-05-21T19:38:25.817Z,13147
2019-05-21T19:43:41.867Z,13122
2019-05-21T19:48:59.226Z,13099
2019-05-21T19:54:18.195Z,13089
2019-05-21T19:59:33.063Z,13101
2019-05-21T20:04:46.471Z,13089
2019-05-21T20:10:05.556Z,13081
2019-05-21T20:15:24.400Z,13061
2019-05-21T20:20:41.048Z,13090
2019-05-21T20:25:59.526Z,13101
2019-05-21T20:31:15.994Z,13197
2019-05-21T20:36:33.336Z,13121
2019-05-21T20:41:50.825Z,13064
2019-05-21T20:47:07.113Z,13060
2019-05-21T20:52:21.066Z,13090
2019-05-21T20:57:38.068Z,13088
2019-05-21T21:02:53.230Z,13065
2019-05-21T21:08:08.607Z,13096
2019-05-21T21:13:26.338Z,13074
2019-05-21T21:18:43.922Z,13088
2019-05-21T21:24:01.278Z,13125
2019-05-21T21:29:18.593Z,13195
2019-05-21T21:34:36.453Z,13140
2019-05-21T21:39:53.578Z,13114
2019-05-21T21:45:11.200Z,13116
2019-05-21T21:50:26.956Z,13147
2019-05-21T21:55:43.481Z,13159
2019-05-21T22:00:59.829Z,13159
2019-05-21T22:06:14.458Z,13144
2019-05-21T22:11:32.995Z,13139
2019-05-21T22:16:52.022Z,13129
2019-05-21T22:22:06.911Z,13110
2019-05-21T22:27:26.675Z,13099
2019-05-21T22:32:44.975Z,13098
2019-05-21T22:38:03.281Z,13099
2019-05-21T22:43:21.069Z,13084
2019-05-21T22:48:40.351Z,13085
2019-05-21T22:59:12.217Z,13085
2019-05-21T23:04:27.972Z,13141
2019-05-21T23:09:43.316Z,13049
2019-05-21T23:14:58.825Z,13168
2019-05-21T23:20:15.283Z,13122
2019-05-21T23:25:31.844Z,13238
2019-05-21T23:30:47.261Z,13203
2019-05-21T23:36:02.274Z,13169
2019-05-21T23:41:17.263Z,13133
2019-05-21T23:46:32.207Z,13141
2019-05-21T23:51:47.677Z,13092
2019-05-21T23:57:02.851Z,13075
